sensor_id;sensor_type;location;lat;lon;timestamp;P1;durP1;ratioP1;P2;durP2;ratioP2
59271;SDS011;45043;51.068;7.026;2023-05-21T00:00:33;13.53;;;12.07;;
59271;SDS011;45043;51.068;7.026;2023-05-21T00:03:34;15.40;;;12.07;;
59271;SDS011;45043;51.068;7.026;2023-05-21T00:06:35;14.23;;;11.53;;
59271;SDS011;45043;51.068;7.026;2023-05-21T00:09:36;14.87;;;12.17;;
59271;SDS011;45043;51.068;7.026;2023-05-21T00:12:40;12.43;;;11.13;;
59271;SDS011;45043;51.068;7.026;2023-05-21T00:15:40;15.27;;;12.07;;
59271;SDS011;45043;51.068;7.026;2023-05-21T00:18:41;17.60;;;13.13;;
59271;SDS011;45043;51.068;7.026;2023-05-21T00:21:42;15.77;;;13.67;;
59271;SDS011;45043;51.068;7.026;2023-05-21T00:24:44;18.10;;;11.93;;
59271;SDS011;45043;51.068;7.026;2023-05-21T00:27:45;16.17;;;13.33;;
59271;SDS011;45043;51.068;7.026;2023-05-21T00:30:46;15.83;;;13.00;;
59271;SDS011;45043;51.068;7.026;2023-05-21T00:33:46;13.30;;;11.53;;
59271;SDS011;45043;51.068;7.026;2023-05-21T00:36:47;14.80;;;11.37;;
59271;SDS011;45043;51.068;7.026;2023-05-21T00:39:48;14.17;;;11.90;;
59271;SDS011;45043;51.068;7.026;2023-05-21T00:42:48;14.37;;;12.13;;
59271;SDS011;45043;51.068;7.026;2023-05-21T00:45:49;13.73;;;12.00;;
59271;SDS011;45043;51.068;7.026;2023-05-21T00:48:49;16.37;;;11.63;;
59271;SDS011;45043;51.068;7.026;2023-05-21T00:51:51;15.20;;;12.27;;
59271;SDS011;45043;51.068;7.026;2023-05-21T00:54:52;13.10;;;10.90;;
59271;SDS011;45043;51.068;7.026;2023-05-21T00:57:53;15.00;;;11.13;;
59271;SDS011;45043;51.068;7.026;2023-05-21T01:00:53;14.87;;;11.33;;
59271;SDS011;45043;51.068;7.026;2023-05-21T01:03:57;13.33;;;11.13;;
59271;SDS011;45043;51.068;7.026;2023-05-21T01:07:00;13.73;;;10.67;;
59271;SDS011;45043;51.068;7.026;2023-05-21T01:10:02;13.50;;;11.03;;
59271;SDS011;45043;51.068;7.026;2023-05-21T01:13:04;12.73;;;10.43;;
59271;SDS011;45043;51.068;7.026;2023-05-21T01:16:06;16.33;;;10.70;;
59271;SDS011;45043;51.068;7.026;2023-05-21T01:19:09;15.83;;;11.00;;
59271;SDS011;45043;51.068;7.026;2023-05-21T01:22:13;14.43;;;11.03;;
59271;SDS011;45043;51.068;7.026;2023-05-21T01:25:17;13.23;;;10.90;;
59271;SDS011;45043;51.068;7.026;2023-05-21T01:28:17;13.33;;;10.30;;
59271;SDS011;45043;51.068;7.026;2023-05-21T01:39:26;13.23;;;10.57;;
59271;SDS011;45043;51.068;7.026;2023-05-21T01:42:15;13.93;;;10.33;;
59271;SDS011;45043;51.068;7.026;2023-05-21T01:45:17;12.23;;;11.00;;
59271;SDS011;45043;51.068;7.026;2023-05-21T01:48:21;12.83;;;10.77;;
59271;SDS011;45043;51.068;7.026;2023-05-21T01:51:24;12.30;;;9.67;;
59271;SDS011;45043;51.068;7.026;2023-05-21T01:54:25;13.00;;;10.30;;
59271;SDS011;45043;51.068;7.026;2023-05-21T01:57:25;12.00;;;10.27;;
59271;SDS011;45043;51.068;7.026;2023-05-21T02:00:26;11.57;;;10.37;;
59271;SDS011;45043;51.068;7.026;2023-05-21T02:03:28;12.53;;;11.13;;
59271;SDS011;45043;51.068;7.026;2023-05-21T02:06:30;12.60;;;10.60;;
59271;SDS011;45043;51.068;7.026;2023-05-21T02:09:30;13.23;;;11.03;;
59271;SDS011;45043;51.068;7.026;2023-05-21T02:12:32;15.77;;;11.27;;
59271;SDS011;45043;51.068;7.026;2023-05-21T02:15:33;13.07;;;11.10;;
59271;SDS011;45043;51.068;7.026;2023-05-21T02:18:34;12.17;;;10.80;;
59271;SDS011;45043;51.068;7.026;2023-05-21T02:21:35;12.73;;;11.00;;
59271;SDS011;45043;51.068;7.026;2023-05-21T02:24:36;13.57;;;11.23;;
59271;SDS011;45043;51.068;7.026;2023-05-21T02:27:37;11.37;;;9.80;;
59271;SDS011;45043;51.068;7.026;2023-05-21T02:30:38;11.90;;;10.70;;
59271;SDS011;45043;51.068;7.026;2023-05-21T02:33:39;12.47;;;10.80;;
59271;SDS011;45043;51.068;7.026;2023-05-21T02:36:40;11.67;;;10.47;;
59271;SDS011;45043;51.068;7.026;2023-05-21T02:39:41;12.40;;;10.80;;
59271;SDS011;45043;51.068;7.026;2023-05-21T02:42:42;12.23;;;10.70;;
59271;SDS011;45043;51.068;7.026;2023-05-21T02:45:47;13.10;;;11.50;;
59271;SDS011;45043;51.068;7.026;2023-05-21T02:48:48;12.90;;;10.90;;
59271;SDS011;45043;51.068;7.026;2023-05-21T02:51:49;13.80;;;11.43;;
59271;SDS011;45043;51.068;7.026;2023-05-21T02:54:50;12.13;;;10.73;;
59271;SDS011;45043;51.068;7.026;2023-05-21T02:57:51;12.77;;;10.80;;
59271;SDS011;45043;51.068;7.026;2023-05-21T03:00:52;13.13;;;10.90;;
59271;SDS011;45043;51.068;7.026;2023-05-21T03:03:52;12.77;;;10.23;;
59271;SDS011;45043;51.068;7.026;2023-05-21T03:06:53;12.03;;;10.50;;
59271;SDS011;45043;51.068;7.026;2023-05-21T03:09:56;12.73;;;10.23;;
59271;SDS011;45043;51.068;7.026;2023-05-21T03:12:56;11.20;;;10.03;;
59271;SDS011;45043;51.068;7.026;2023-05-21T03:15:57;12.43;;;10.50;;
59271;SDS011;45043;51.068;7.026;2023-05-21T03:18:58;12.43;;;10.40;;
59271;SDS011;45043;51.068;7.026;2023-05-21T03:21:59;16.53;;;12.53;;
59271;SDS011;45043;51.068;7.026;2023-05-21T03:25:00;12.83;;;10.27;;
59271;SDS011;45043;51.068;7.026;2023-05-21T03:28:02;11.00;;;9.90;;
59271;SDS011;45043;51.068;7.026;2023-05-21T03:31:23;12.27;;;10.07;;
59271;SDS011;45043;51.068;7.026;2023-05-21T03:34:38;13.57;;;10.17;;
59271;SDS011;45043;51.068;7.026;2023-05-21T03:37:38;11.70;;;10.50;;
59271;SDS011;45043;51.068;7.026;2023-05-21T03:40:39;12.40;;;11.00;;
59271;SDS011;45043;51.068;7.026;2023-05-21T03:43:40;12.30;;;10.67;;
59271;SDS011;45043;51.068;7.026;2023-05-21T03:46:41;12.33;;;10.53;;
59271;SDS011;45043;51.068;7.026;2023-05-21T03:49:51;13.37;;;10.67;;
59271;SDS011;45043;51.068;7.026;2023-05-21T03:52:52;11.73;;;10.37;;
59271;SDS011;45043;51.068;7.026;2023-05-21T03:55:53;12.37;;;11.07;;
59271;SDS011;45043;51.068;7.026;2023-05-21T03:58:56;12.17;;;10.87;;
59271;SDS011;45043;51.068;7.026;2023-05-21T04:01:57;11.97;;;10.50;;
59271;SDS011;45043;51.068;7.026;2023-05-21T04:04:59;11.83;;;10.27;;
59271;SDS011;45043;51.068;7.026;2023-05-21T04:08:00;11.90;;;10.67;;
59271;SDS011;45043;51.068;7.026;2023-05-21T04:11:01;12.67;;;11.27;;
59271;SDS011;45043;51.068;7.026;2023-05-21T04:14:02;12.13;;;10.83;;
59271;SDS011;45043;51.068;7.026;2023-05-21T04:17:03;12.70;;;10.27;;
59271;SDS011;45043;51.068;7.026;2023-05-21T04:20:04;13.77;;;10.20;;
59271;SDS011;45043;51.068;7.026;2023-05-21T04:23:06;11.33;;;10.13;;
59271;SDS011;45043;51.068;7.026;2023-05-21T04:26:06;11.70;;;10.43;;
59271;SDS011;45043;51.068;7.026;2023-05-21T04:29:07;12.57;;;10.90;;
59271;SDS011;45043;51.068;7.026;2023-05-21T04:32:09;12.70;;;10.63;;
59271;SDS011;45043;51.068;7.026;2023-05-21T04:35:10;10.57;;;9.47;;
59271;SDS011;45043;51.068;7.026;2023-05-21T04:38:11;13.63;;;10.60;;
59271;SDS011;45043;51.068;7.026;2023-05-21T04:41:13;10.90;;;9.43;;
59271;SDS011;45043;51.068;7.026;2023-05-21T04:44:13;11.43;;;9.53;;
59271;SDS011;45043;51.068;7.026;2023-05-21T04:47:16;11.80;;;9.77;;
59271;SDS011;45043;51.068;7.026;2023-05-21T04:50:21;11.27;;;10.03;;
59271;SDS011;45043;51.068;7.026;2023-05-21T04:53:22;12.47;;;10.07;;
59271;SDS011;45043;51.068;7.026;2023-05-21T04:56:24;19.25;;;10.43;;
59271;SDS011;45043;51.068;7.026;2023-05-21T04:59:28;15.87;;;9.73;;
59271;SDS011;45043;51.068;7.026;2023-05-21T05:02:29;14.43;;;10.07;;
59271;SDS011;45043;51.068;7.026;2023-05-21T05:05:29;12.53;;;10.37;;
59271;SDS011;45043;51.068;7.026;2023-05-21T05:08:30;9.97;;;8.97;;
59271;SDS011;45043;51.068;7.026;2023-05-21T05:11:31;10.90;;;9.60;;
59271;SDS011;45043;51.068;7.026;2023-05-21T05:14:31;11.10;;;9.77;;
59271;SDS011;45043;51.068;7.026;2023-05-21T06:27:23;10.37;;;9.37;;
59271;SDS011;45043;51.068;7.026;2023-05-21T06:30:24;10.97;;;9.70;;
59271;SDS011;45043;51.068;7.026;2023-05-21T06:33:26;10.20;;;9.10;;
59271;SDS011;45043;51.068;7.026;2023-05-21T06:36:26;10.73;;;8.67;;
59271;SDS011;45043;51.068;7.026;2023-05-21T06:39:30;10.20;;;8.97;;
59271;SDS011;45043;51.068;7.026;2023-05-21T06:42:30;10.33;;;8.93;;
59271;SDS011;45043;51.068;7.026;2023-05-21T06:45:49;9.43;;;8.33;;
59271;SDS011;45043;51.068;7.026;2023-05-21T06:49:00;13.43;;;9.83;;
59271;SDS011;45043;51.068;7.026;2023-05-21T06:52:01;10.60;;;9.50;;
59271;SDS011;45043;51.068;7.026;2023-05-21T06:55:02;11.60;;;9.03;;
59271;SDS011;45043;51.068;7.026;2023-05-21T06:58:17;11.77;;;9.33;;
59271;SDS011;45043;51.068;7.026;2023-05-21T07:01:17;9.90;;;8.90;;
59271;SDS011;45043;51.068;7.026;2023-05-21T07:04:18;9.97;;;8.80;;
59271;SDS011;45043;51.068;7.026;2023-05-21T07:07:19;10.00;;;8.93;;
59271;SDS011;45043;51.068;7.026;2023-05-21T07:10:21;10.87;;;8.17;;
59271;SDS011;45043;51.068;7.026;2023-05-21T07:13:21;11.50;;;9.00;;
59271;SDS011;45043;51.068;7.026;2023-05-21T07:16:22;14.43;;;10.73;;
59271;SDS011;45043;51.068;7.026;2023-05-21T07:19:23;12.90;;;10.20;;
59271;SDS011;45043;51.068;7.026;2023-05-21T07:22:23;11.83;;;9.77;;
59271;SDS011;45043;51.068;7.026;2023-05-21T07:25:24;13.33;;;10.00;;
59271;SDS011;45043;51.068;7.026;2023-05-21T07:28:25;11.83;;;9.80;;
59271;SDS011;45043;51.068;7.026;2023-05-21T07:31:25;10.33;;;9.23;;
59271;SDS011;45043;51.068;7.026;2023-05-21T07:34:26;10.87;;;9.27;;
59271;SDS011;45043;51.068;7.026;2023-05-21T07:37:28;13.43;;;9.53;;
59271;SDS011;45043;51.068;7.026;2023-05-21T07:40:28;11.60;;;9.63;;
59271;SDS011;45043;51.068;7.026;2023-05-21T07:43:30;10.30;;;9.23;;
59271;SDS011;45043;51.068;7.026;2023-05-21T07:46:30;10.43;;;9.33;;
59271;SDS011;45043;51.068;7.026;2023-05-21T07:49:31;11.53;;;10.33;;
59271;SDS011;45043;51.068;7.026;2023-05-21T07:52:32;12.87;;;11.00;;
59271;SDS011;45043;51.068;7.026;2023-05-21T07:55:34;12.60;;;10.47;;
59271;SDS011;45043;51.068;7.026;2023-05-21T07:58:34;10.37;;;9.33;;
59271;SDS011;45043;51.068;7.026;2023-05-21T08:01:36;11.37;;;9.90;;
59271;SDS011;45043;51.068;7.026;2023-05-21T08:04:36;11.03;;;9.90;;
59271;SDS011;45043;51.068;7.026;2023-05-21T08:07:37;10.50;;;9.50;;
59271;SDS011;45043;51.068;7.026;2023-05-21T08:10:38;11.37;;;10.13;;
59271;SDS011;45043;51.068;7.026;2023-05-21T08:13:39;11.50;;;10.30;;
59271;SDS011;45043;51.068;7.026;2023-05-21T08:16:44;11.83;;;10.27;;
59271;SDS011;45043;51.068;7.026;2023-05-21T08:19:45;11.50;;;10.30;;
59271;SDS011;45043;51.068;7.026;2023-05-21T08:22:45;12.93;;;10.80;;
59271;SDS011;45043;51.068;7.026;2023-05-21T08:25:47;11.53;;;10.17;;
59271;SDS011;45043;51.068;7.026;2023-05-21T08:28:48;13.07;;;9.43;;
59271;SDS011;45043;51.068;7.026;2023-05-21T08:31:48;11.10;;;10.00;;
59271;SDS011;45043;51.068;7.026;2023-05-21T08:34:49;10.30;;;9.30;;
59271;SDS011;45043;51.068;7.026;2023-05-21T08:38:11;12.67;;;10.20;;
59271;SDS011;45043;51.068;7.026;2023-05-21T08:41:26;13.87;;;10.30;;
59271;SDS011;45043;51.068;7.026;2023-05-21T08:44:29;13.87;;;10.80;;
59271;SDS011;45043;51.068;7.026;2023-05-21T08:47:33;11.40;;;9.97;;
59271;SDS011;45043;51.068;7.026;2023-05-21T08:50:36;11.03;;;9.90;;
59271;SDS011;45043;51.068;7.026;2023-05-21T08:53:44;11.67;;;10.20;;
59271;SDS011;45043;51.068;7.026;2023-05-21T08:56:46;12.13;;;10.93;;
59271;SDS011;45043;51.068;7.026;2023-05-21T08:59:50;11.50;;;10.30;;
59271;SDS011;45043;51.068;7.026;2023-05-21T09:02:57;11.33;;;10.23;;
59271;SDS011;45043;51.068;7.026;2023-05-21T09:06:01;11.97;;;10.70;;
59271;SDS011;45043;51.068;7.026;2023-05-21T09:09:05;12.80;;;11.50;;
59271;SDS011;45043;51.068;7.026;2023-05-21T09:12:20;17.70;;;15.10;;
59271;SDS011;45043;51.068;7.026;2023-05-21T09:15:21;15.93;;;14.23;;
59271;SDS011;45043;51.068;7.026;2023-05-21T09:18:21;15.53;;;13.00;;
59271;SDS011;45043;51.068;7.026;2023-05-21T09:21:26;17.33;;;14.57;;
59271;SDS011;45043;51.068;7.026;2023-05-21T09:24:45;16.23;;;13.60;;
59271;SDS011;45043;51.068;7.026;2023-05-21T09:27:47;12.53;;;11.23;;
59271;SDS011;45043;51.068;7.026;2023-05-21T09:30:48;13.73;;;11.60;;
59271;SDS011;45043;51.068;7.026;2023-05-21T09:33:53;31.87;;;24.00;;
59271;SDS011;45043;51.068;7.026;2023-05-21T09:36:55;14.27;;;12.77;;
59271;SDS011;45043;51.068;7.026;2023-05-21T09:39:56;15.67;;;11.50;;
59271;SDS011;45043;51.068;7.026;2023-05-21T09:42:57;14.17;;;12.70;;
59271;SDS011;45043;51.068;7.026;2023-05-21T09:45:59;15.67;;;13.63;;
59271;SDS011;45043;51.068;7.026;2023-05-21T09:49:20;12.40;;;11.07;;
59271;SDS011;45043;51.068;7.026;2023-05-21T09:52:26;13.73;;;11.50;;
59271;SDS011;45043;51.068;7.026;2023-05-21T09:55:28;12.40;;;11.10;;
59271;SDS011;45043;51.068;7.026;2023-05-21T09:58:30;13.33;;;11.93;;
59271;SDS011;45043;51.068;7.026;2023-05-21T10:01:31;14.33;;;12.83;;
59271;SDS011;45043;51.068;7.026;2023-05-21T10:04:36;15.17;;;13.57;;
59271;SDS011;45043;51.068;7.026;2023-05-21T10:07:37;14.40;;;12.97;;
59271;SDS011;45043;51.068;7.026;2023-05-21T10:10:43;12.03;;;10.77;;
59271;SDS011;45043;51.068;7.026;2023-05-21T10:13:47;14.83;;;11.53;;
59271;SDS011;45043;51.068;7.026;2023-05-21T10:16:56;29.20;;;26.03;;
59271;SDS011;45043;51.068;7.026;2023-05-21T10:19:59;27.53;;;23.90;;
59271;SDS011;45043;51.068;7.026;2023-05-21T10:23:01;24.87;;;20.87;;
59271;SDS011;45043;51.068;7.026;2023-05-21T10:26:02;14.13;;;12.73;;
59271;SDS011;45043;51.068;7.026;2023-05-21T10:29:04;13.23;;;11.93;;
59271;SDS011;45043;51.068;7.026;2023-05-21T10:32:07;15.87;;;12.77;;
59271;SDS011;45043;51.068;7.026;2023-05-21T10:35:10;12.17;;;10.97;;
59271;SDS011;45043;51.068;7.026;2023-05-21T10:38:12;12.10;;;10.80;;
59271;SDS011;45043;51.068;7.026;2023-05-21T10:41:14;12.90;;;11.60;;
59271;SDS011;45043;51.068;7.026;2023-05-21T10:51:37;12.00;;;10.90;;
59271;SDS011;45043;51.068;7.026;2023-05-21T11:01:54;14.03;;;12.63;;
59271;SDS011;45043;51.068;7.026;2023-05-21T11:04:59;16.97;;;15.27;;
59271;SDS011;45043;51.068;7.026;2023-05-21T11:14:55;13.20;;;11.80;;
59271;SDS011;45043;51.068;7.026;2023-05-21T11:17:56;14.67;;;10.70;;
59271;SDS011;45043;51.068;7.026;2023-05-21T11:21:09;11.80;;;10.70;;
59271;SDS011;45043;51.068;7.026;2023-05-21T11:24:10;12.87;;;11.57;;
59271;SDS011;45043;51.068;7.026;2023-05-21T11:27:37;13.70;;;12.23;;
59271;SDS011;45043;51.068;7.026;2023-05-21T11:30:39;17.77;;;14.40;;
59271;SDS011;45043;51.068;7.026;2023-05-21T11:33:41;18.20;;;16.30;;
59271;SDS011;45043;51.068;7.026;2023-05-21T11:36:45;12.50;;;11.30;;
59271;SDS011;45043;51.068;7.026;2023-05-21T11:39:48;13.93;;;12.53;;
59271;SDS011;45043;51.068;7.026;2023-05-21T11:42:51;15.30;;;13.77;;
59271;SDS011;45043;51.068;7.026;2023-05-21T11:45:53;13.60;;;12.30;;
59271;SDS011;45043;51.068;7.026;2023-05-21T11:48:57;16.60;;;14.77;;
59271;SDS011;45043;51.068;7.026;2023-05-21T11:51:58;15.97;;;14.37;;
59271;SDS011;45043;51.068;7.026;2023-05-21T11:55:00;17.27;;;15.57;;
59271;SDS011;45043;51.068;7.026;2023-05-21T11:58:01;17.67;;;15.87;;
59271;SDS011;45043;51.068;7.026;2023-05-21T12:01:04;14.60;;;13.17;;
59271;SDS011;45043;51.068;7.026;2023-05-21T12:04:35;13.63;;;12.23;;
59271;SDS011;45043;51.068;7.026;2023-05-21T12:07:36;13.50;;;11.70;;
59271;SDS011;45043;51.068;7.026;2023-05-21T12:10:37;12.93;;;11.60;;
59271;SDS011;45043;51.068;7.026;2023-05-21T12:13:41;14.27;;;11.63;;
59271;SDS011;45043;51.068;7.026;2023-05-21T12:16:42;13.17;;;11.87;;
59271;SDS011;45043;51.068;7.026;2023-05-21T12:19:43;13.83;;;12.53;;
59271;SDS011;45043;51.068;7.026;2023-05-21T12:22:45;12.93;;;11.60;;
59271;SDS011;45043;51.068;7.026;2023-05-21T12:25:47;15.07;;;13.70;;
59271;SDS011;45043;51.068;7.026;2023-05-21T12:28:48;15.40;;;13.23;;
59271;SDS011;45043;51.068;7.026;2023-05-21T12:31:49;15.90;;;14.40;;
59271;SDS011;45043;51.068;7.026;2023-05-21T12:34:50;12.47;;;11.37;;
59271;SDS011;45043;51.068;7.026;2023-05-21T12:37:53;13.10;;;11.80;;
59271;SDS011;45043;51.068;7.026;2023-05-21T12:40:54;15.83;;;14.30;;
59271;SDS011;45043;51.068;7.026;2023-05-21T12:43:54;14.23;;;12.73;;
59271;SDS011;45043;51.068;7.026;2023-05-21T12:46:55;14.20;;;12.80;;
59271;SDS011;45043;51.068;7.026;2023-05-21T12:49:56;16.67;;;13.70;;
59271;SDS011;45043;51.068;7.026;2023-05-21T12:52:57;13.13;;;11.77;;
59271;SDS011;45043;51.068;7.026;2023-05-21T12:56:06;13.10;;;11.87;;
59271;SDS011;45043;51.068;7.026;2023-05-21T12:59:15;12.37;;;11.07;;
59271;SDS011;45043;51.068;7.026;2023-05-21T13:02:23;26.33;;;20.20;;
59271;SDS011;45043;51.068;7.026;2023-05-21T13:05:25;44.20;;;26.97;;
59271;SDS011;45043;51.068;7.026;2023-05-21T13:08:26;19.53;;;15.40;;
59271;SDS011;45043;51.068;7.026;2023-05-21T13:11:27;17.30;;;14.93;;
59271;SDS011;45043;51.068;7.026;2023-05-21T13:14:28;13.50;;;12.20;;
59271;SDS011;45043;51.068;7.026;2023-05-21T13:17:28;14.20;;;12.80;;
59271;SDS011;45043;51.068;7.026;2023-05-21T13:20:29;17.10;;;15.37;;
59271;SDS011;45043;51.068;7.026;2023-05-21T13:23:30;14.57;;;13.27;;
59271;SDS011;45043;51.068;7.026;2023-05-21T13:26:30;14.20;;;12.90;;
59271;SDS011;45043;51.068;7.026;2023-05-21T13:29:31;11.83;;;10.73;;
59271;SDS011;45043;51.068;7.026;2023-05-21T13:32:31;12.07;;;10.97;;
59271;SDS011;45043;51.068;7.026;2023-05-21T13:35:32;12.53;;;10.93;;
59271;SDS011;45043;51.068;7.026;2023-05-21T13:38:33;11.73;;;10.63;;
59271;SDS011;45043;51.068;7.026;2023-05-21T13:41:34;10.43;;;9.53;;
59271;SDS011;45043;51.068;7.026;2023-05-21T13:44:34;11.85;;;9.95;;
59271;SDS011;45043;51.068;7.026;2023-05-21T13:47:35;12.23;;;10.83;;
59271;SDS011;45043;51.068;7.026;2023-05-21T13:50:37;12.40;;;11.17;;
59271;SDS011;45043;51.068;7.026;2023-05-21T13:53:37;12.17;;;10.97;;
59271;SDS011;45043;51.068;7.026;2023-05-21T13:56:38;11.77;;;10.40;;
59271;SDS011;45043;51.068;7.026;2023-05-21T13:59:38;11.83;;;10.27;;
59271;SDS011;45043;51.068;7.026;2023-05-21T14:02:41;11.30;;;10.30;;
59271;SDS011;45043;51.068;7.026;2023-05-21T14:05:42;10.70;;;9.70;;
59271;SDS011;45043;51.068;7.026;2023-05-21T14:08:43;11.10;;;10.17;;
59271;SDS011;45043;51.068;7.026;2023-05-21T14:11:43;11.18;;;10.15;;
59271;SDS011;45043;51.068;7.026;2023-05-21T14:14:44;12.98;;;11.65;;
59271;SDS011;45043;51.068;7.026;2023-05-21T14:17:45;11.85;;;10.68;;
59271;SDS011;45043;51.068;7.026;2023-05-21T14:20:45;11.15;;;10.02;;
59271;SDS011;45043;51.068;7.026;2023-05-21T14:23:46;10.90;;;9.82;;
59271;SDS011;45043;51.068;7.026;2023-05-21T14:26:47;10.68;;;9.77;;
59271;SDS011;45043;51.068;7.026;2023-05-21T14:29:48;10.82;;;9.88;;
59271;SDS011;45043;51.068;7.026;2023-05-21T14:32:48;10.75;;;9.80;;
59271;SDS011;45043;51.068;7.026;2023-05-21T14:35:49;14.38;;;12.90;;
59271;SDS011;45043;51.068;7.026;2023-05-21T14:38:49;13.50;;;12.02;;
59271;SDS011;45043;51.068;7.026;2023-05-21T14:41:50;11.38;;;10.27;;
59271;SDS011;45043;51.068;7.026;2023-05-21T14:44:50;11.25;;;10.15;;
59271;SDS011;45043;51.068;7.026;2023-05-21T14:47:51;13.40;;;11.40;;
59271;SDS011;45043;51.068;7.026;2023-05-21T14:50:54;13.20;;;10.57;;
59271;SDS011;45043;51.068;7.026;2023-05-21T14:53:54;11.20;;;10.20;;
59271;SDS011;45043;51.068;7.026;2023-05-21T14:56:56;10.55;;;9.50;;
59271;SDS011;45043;51.068;7.026;2023-05-21T14:59:57;12.40;;;11.18;;
59271;SDS011;45043;51.068;7.026;2023-05-21T15:02:57;11.00;;;9.90;;
59271;SDS011;45043;51.068;7.026;2023-05-21T15:05:58;11.40;;;10.50;;
59271;SDS011;45043;51.068;7.026;2023-05-21T15:08:58;10.82;;;9.82;;
59271;SDS011;45043;51.068;7.026;2023-05-21T15:11:59;12.70;;;11.45;;
59271;SDS011;45043;51.068;7.026;2023-05-21T15:15:00;12.30;;;11.25;;
59271;SDS011;45043;51.068;7.026;2023-05-21T15:18:00;10.40;;;9.50;;
59271;SDS011;45043;51.068;7.026;2023-05-21T15:21:01;16.35;;;11.20;;
59271;SDS011;45043;51.068;7.026;2023-05-21T15:24:02;12.80;;;11.52;;
59271;SDS011;45043;51.068;7.026;2023-05-21T15:27:02;11.73;;;10.73;;
59271;SDS011;45043;51.068;7.026;2023-05-21T15:30:03;11.70;;;10.65;;
59271;SDS011;45043;51.068;7.026;2023-05-21T15:33:04;12.25;;;11.15;;
59271;SDS011;45043;51.068;7.026;2023-05-21T15:36:04;11.77;;;10.60;;
59271;SDS011;45043;51.068;7.026;2023-05-21T15:39:05;11.13;;;10.07;;
59271;SDS011;45043;51.068;7.026;2023-05-21T15:42:06;12.57;;;10.75;;
59271;SDS011;45043;51.068;7.026;2023-05-21T15:45:06;11.48;;;10.43;;
59271;SDS011;45043;51.068;7.026;2023-05-21T15:48:07;11.55;;;10.65;;
59271;SDS011;45043;51.068;7.026;2023-05-21T15:51:08;10.63;;;9.63;;
59271;SDS011;45043;51.068;7.026;2023-05-21T15:54:08;12.30;;;11.20;;
59271;SDS011;45043;51.068;7.026;2023-05-21T15:57:09;11.88;;;10.32;;
59271;SDS011;45043;51.068;7.026;2023-05-21T16:00:10;12.40;;;10.20;;
59271;SDS011;45043;51.068;7.026;2023-05-21T16:03:12;11.70;;;10.70;;
59271;SDS011;45043;51.068;7.026;2023-05-21T16:06:12;11.15;;;10.25;;
59271;SDS011;45043;51.068;7.026;2023-05-21T16:09:13;14.70;;;13.30;;
59271;SDS011;45043;51.068;7.026;2023-05-21T16:12:14;11.07;;;10.18;;
59271;SDS011;45043;51.068;7.026;2023-05-21T16:15:17;11.18;;;10.20;;
59271;SDS011;45043;51.068;7.026;2023-05-21T16:18:17;10.93;;;9.90;;
59271;SDS011;45043;51.068;7.026;2023-05-21T16:21:18;12.07;;;11.07;;
59271;SDS011;45043;51.068;7.026;2023-05-21T16:24:18;12.35;;;11.02;;
59271;SDS011;45043;51.068;7.026;2023-05-21T16:27:19;11.38;;;10.38;;
59271;SDS011;45043;51.068;7.026;2023-05-21T16:30:19;12.98;;;11.65;;
59271;SDS011;45043;51.068;7.026;2023-05-21T16:33:20;12.90;;;11.65;;
59271;SDS011;45043;51.068;7.026;2023-05-21T16:36:20;13.90;;;12.43;;
59271;SDS011;45043;51.068;7.026;2023-05-21T16:39:20;13.05;;;11.75;;
59271;SDS011;45043;51.068;7.026;2023-05-21T16:42:21;10.85;;;9.82;;
59271;SDS011;45043;51.068;7.026;2023-05-21T16:45:21;12.18;;;11.05;;
59271;SDS011;45043;51.068;7.026;2023-05-21T16:48:22;12.70;;;11.60;;
59271;SDS011;45043;51.068;7.026;2023-05-21T16:51:22;12.15;;;11.05;;
59271;SDS011;45043;51.068;7.026;2023-05-21T16:54:23;13.10;;;11.70;;
59271;SDS011;45043;51.068;7.026;2023-05-21T16:57:23;12.02;;;10.93;;
59271;SDS011;45043;51.068;7.026;2023-05-21T17:00:23;12.85;;;11.65;;
59271;SDS011;45043;51.068;7.026;2023-05-21T17:03:24;13.50;;;12.10;;
59271;SDS011;45043;51.068;7.026;2023-05-21T17:06:24;11.77;;;10.77;;
59271;SDS011;45043;51.068;7.026;2023-05-21T17:09:25;12.63;;;11.52;;
59271;SDS011;45043;51.068;7.026;2023-05-21T17:12:25;12.75;;;11.65;;
59271;SDS011;45043;51.068;7.026;2023-05-21T17:15:26;12.67;;;11.47;;
59271;SDS011;45043;51.068;7.026;2023-05-21T17:18:26;14.07;;;12.30;;
59271;SDS011;45043;51.068;7.026;2023-05-21T17:21:27;12.93;;;11.77;;
59271;SDS011;45043;51.068;7.026;2023-05-21T17:24:27;12.37;;;11.17;;
59271;SDS011;45043;51.068;7.026;2023-05-21T17:27:28;12.63;;;11.33;;
59271;SDS011;45043;51.068;7.026;2023-05-21T17:30:28;13.53;;;12.23;;
59271;SDS011;45043;51.068;7.026;2023-05-21T17:33:28;15.40;;;13.80;;
59271;SDS011;45043;51.068;7.026;2023-05-21T17:36:30;13.80;;;12.27;;
59271;SDS011;45043;51.068;7.026;2023-05-21T17:39:30;14.13;;;12.53;;
59271;SDS011;45043;51.068;7.026;2023-05-21T17:42:31;14.27;;;12.87;;
59271;SDS011;45043;51.068;7.026;2023-05-21T17:45:31;13.83;;;12.53;;
59271;SDS011;45043;51.068;7.026;2023-05-21T17:48:32;13.03;;;11.83;;
59271;SDS011;45043;51.068;7.026;2023-05-21T17:51:32;14.03;;;12.73;;
59271;SDS011;45043;51.068;7.026;2023-05-21T17:54:33;13.63;;;11.73;;
59271;SDS011;45043;51.068;7.026;2023-05-21T17:57:34;14.23;;;12.17;;
59271;SDS011;45043;51.068;7.026;2023-05-21T18:00:34;16.83;;;13.07;;
59271;SDS011;45043;51.068;7.026;2023-05-21T18:03:35;19.73;;;13.93;;
59271;SDS011;45043;51.068;7.026;2023-05-21T18:06:35;15.60;;;14.00;;
59271;SDS011;45043;51.068;7.026;2023-05-21T18:09:36;14.40;;;13.10;;
59271;SDS011;45043;51.068;7.026;2023-05-21T18:12:36;14.70;;;13.30;;
59271;SDS011;45043;51.068;7.026;2023-05-21T18:15:36;15.17;;;13.60;;
59271;SDS011;45043;51.068;7.026;2023-05-21T18:18:37;16.63;;;14.97;;
59271;SDS011;45043;51.068;7.026;2023-05-21T18:21:37;17.97;;;16.27;;
59271;SDS011;45043;51.068;7.026;2023-05-21T18:24:38;18.20;;;16.27;;
59271;SDS011;45043;51.068;7.026;2023-05-21T18:27:38;18.40;;;16.50;;
59271;SDS011;45043;51.068;7.026;2023-05-21T18:30:39;19.77;;;17.67;;
59271;SDS011;45043;51.068;7.026;2023-05-21T18:33:39;18.70;;;16.83;;
59271;SDS011;45043;51.068;7.026;2023-05-21T18:36:40;18.03;;;16.13;;
59271;SDS011;45043;51.068;7.026;2023-05-21T18:39:41;21.17;;;17.90;;
59271;SDS011;45043;51.068;7.026;2023-05-21T18:42:41;19.87;;;17.23;;
59271;SDS011;45043;51.068;7.026;2023-05-21T18:45:45;20.33;;;18.23;;
59271;SDS011;45043;51.068;7.026;2023-05-21T18:48:46;20.27;;;18.20;;
59271;SDS011;45043;51.068;7.026;2023-05-21T18:51:47;23.07;;;18.27;;
59271;SDS011;45043;51.068;7.026;2023-05-21T18:54:48;20.97;;;18.43;;
59271;SDS011;45043;51.068;7.026;2023-05-21T18:57:48;22.90;;;19.90;;
59271;SDS011;45043;51.068;7.026;2023-05-21T19:00:49;22.67;;;20.27;;
59271;SDS011;45043;51.068;7.026;2023-05-21T19:03:50;21.47;;;18.53;;
59271;SDS011;45043;51.068;7.026;2023-05-21T19:06:50;21.20;;;19.07;;
59271;SDS011;45043;51.068;7.026;2023-05-21T19:09:51;21.73;;;19.40;;
59271;SDS011;45043;51.068;7.026;2023-05-21T19:12:52;19.33;;;17.40;;
59271;SDS011;45043;51.068;7.026;2023-05-21T19:15:53;20.70;;;18.60;;
59271;SDS011;45043;51.068;7.026;2023-05-21T19:18:53;20.37;;;18.07;;
59271;SDS011;45043;51.068;7.026;2023-05-21T19:21:54;23.33;;;18.90;;
59271;SDS011;45043;51.068;7.026;2023-05-21T19:24:55;22.37;;;19.47;;